KSAD

Details ICAO KSAD
Name SAFFORD RGNL
Region United States
Timezone America/Phoenix (UTC-7.0)
Plans Departing 5
Arriving 7
Stats Elevation 3,176 ft / 968 m (AMSL)
Location 32.854185° -109.635497°
Runways 2
Magnetic Variation 9.456° E
Sunrise 2017-12-13 14:14:02 UTC / 2017-12-13 07:14:02 Local
Sunset 2017-12-14 00:14:34 UTC / 2017-12-13 17:14:34 Local
Advertisement - Login to hide

Runways

ID Width Length Bearing (true) Bearing (mag) Surface Threshold Offset Overrun Length
08 75 ft / 23 m 4,791 ft / 1,460 m 90.57° 81.11° Asphalt 0 ft / 0 m 0 ft / 0 m
12 100 ft / 30 m 6,019 ft / 1,835 m 135.48° 126.02° Asphalt 0 ft / 0 m 0 ft / 0 m
26 75 ft / 23 m 4,791 ft / 1,460 m 270.58° 261.12° Asphalt 0 ft / 0 m 0 ft / 0 m
30 100 ft / 30 m 6,019 ft / 1,835 m 315.49° 306.03° Asphalt 0 ft / 0 m 0 ft / 0 m

Map

Weather


0- 5 10 15 20 25 30 35+ Temperature / ° C

Clouds and Precipitation
Forecast for 2017-12-13 12:00 UTC. Updated 2 hours ago

Ground ~20,000 ft ~40,000 ft Winds

METAR

KSAD 131051Z AUTO 14009KT 10SM CLR 07/M15 A3016 RMK AO2 SLP191 T00721150

TAF

Not found

Frequencies

Recorded 124.17 MHz ASOS
Unicom 122.80 MHz CTAF/UNICOM
Warning: Do not use this data for real-world aviation or navigation. No guarantee of current accuracy is given.